Time;durP1;ratioP1;P1;durP2;ratioP2;P2;SDS_P1;SDS_P2;PMS_P1;PMS_P2;Temp;Humidity;BMP_temperature;BMP_pressure;BME280_temperature;BME280_humidity;BME280_pressure;Samples;Min_cycle;Max_cycle;Signal;HPM_P1;HPM_P2
2021/04/27 00:02:07;;;;;;;5.20;3.10;;;9.30;65.30;;;;;;5060734;28;20468;-89
2021/04/27 00:04:33;;;;;;;5.10;3.30;;;9.40;64.70;;;;;;5050019;28;20512;-86
2021/04/27 00:06:59;;;;;;;10.83;3.00;;;9.40;64.00;;;;;;5051927;28;20469;-85
2021/04/27 00:09:26;;;;;;;7.57;3.23;;;9.40;60.80;;;;;;5040567;28;20537;-85
2021/04/27 00:11:53;;;;;;;5.13;2.70;;;9.60;60.80;;;;;;5032249;28;20581;-87
2021/04/27 00:14:19;;;;;;;6.13;2.90;;;9.60;60.70;;;;;;5034070;28;20450;-85
2021/04/27 00:16:46;;;;;;;4.10;2.43;;;9.60;59.30;;;;;;5036441;28;20527;-85
2021/04/27 00:19:12;;;;;;;4.37;2.80;;;9.70;55.80;;;;;;5034291;28;20525;-85
2021/04/27 00:21:39;;;;;;;6.07;3.20;;;9.70;55.30;;;;;;5044833;28;20423;-85
2021/04/27 00:24:06;;;;;;;6.23;3.00;;;9.70;54.60;;;;;;5020608;28;20465;-86
2021/04/27 00:26:33;;;;;;;10.47;3.47;;;9.70;54.70;;;;;;5019980;28;20425;-85
2021/04/27 00:29:00;;;;;;;5.60;2.60;;;9.90;54.60;;;;;;5037388;28;20491;-85
2021/04/27 00:31:27;;;;;;;5.43;3.30;;;9.90;53.80;;;;;;5037763;28;20542;-84
2021/04/27 00:33:54;;;;;;;6.97;2.70;;;9.80;54.00;;;;;;5043318;28;20496;-85
2021/04/27 00:36:20;;;;;;;4.13;2.47;;;9.80;54.40;;;;;;5048192;28;20449;-87
2021/04/27 00:38:46;;;;;;;4.70;2.40;;;9.80;53.90;;;;;;5042413;28;20454;-85
2021/04/27 00:41:13;;;;;;;6.70;3.07;;;9.80;54.10;;;;;;5036251;28;20473;-84
2021/04/27 00:43:39;;;;;;;7.67;2.97;;;9.80;54.00;;;;;;5022161;28;20513;-87
2021/04/27 00:46:06;;;;;;;5.20;2.77;;;9.70;54.10;;;;;;5017510;28;20872;-84
2021/04/27 00:48:33;;;;;;;6.57;2.30;;;9.60;54.30;;;;;;5035245;28;20545;-84
2021/04/27 00:50:59;;;;;;;7.03;2.43;;;9.60;54.30;;;;;;5057809;28;20933;-84
2021/04/27 00:53:25;;;;;;;6.10;3.30;;;9.50;54.80;;;;;;5037722;28;20665;-85
2021/04/27 00:55:52;;;;;;;4.30;2.20;;;9.50;54.80;;;;;;5038442;28;20462;-86
2021/04/27 00:58:19;;;;;;;5.37;2.40;;;9.50;55.10;;;;;;5024537;28;20962;-86
2021/04/27 01:00:46;;;;;;;7.50;2.57;;;9.50;55.30;;;;;;5018183;28;20454;-86
2021/04/27 01:03:13;;;;;;;4.87;2.40;;;9.50;55.00;;;;;;5023084;28;20560;-85
2021/04/27 01:05:40;;;;;;;7.73;2.90;;;9.50;55.30;;;;;;5039158;28;21041;-87
2021/04/27 01:08:13;;;;;;;6.50;3.00;;;9.50;55.40;;;;;;5047415;28;20482;-85
2021/04/27 01:10:45;;;;;;;8.43;2.30;;;9.50;55.60;;;;;;5048810;28;20501;-86
2021/04/27 01:13:20;;;;;;;4.97;2.90;;;9.60;55.60;;;;;;5036058;28;20502;-86
2021/04/27 01:15:47;;;;;;;7.33;3.23;;;9.50;55.60;;;;;;5019673;28;20488;-85
2021/04/27 01:18:15;;;;;;;8.30;4.33;;;9.00;55.90;;;;;;5017093;28;20473;-85
2021/04/27 01:20:43;;;;;;;5.87;3.10;;;9.20;56.20;;;;;;5018028;28;20455;-85
2021/04/27 01:23:19;;;;;;;5.27;2.67;;;9.20;56.50;;;;;;5028981;28;20983;-85
2021/04/27 01:25:50;;;;;;;6.00;2.73;;;8.90;56.50;;;;;;5035489;28;20934;-85
2021/04/27 01:28:20;;;;;;;5.10;2.90;;;9.20;56.80;;;;;;5025183;28;20459;-85
2021/04/27 01:30:47;;;;;;;4.83;3.03;;;9.10;57.10;;;;;;5048082;28;20498;-84
2021/04/27 01:33:17;;;;;;;8.13;4.30;;;9.00;57.20;;;;;;5025755;28;20456;-85
2021/04/27 01:35:44;;;;;;;6.40;2.83;;;9.10;56.90;;;;;;5017756;28;20515;-85
2021/04/27 01:38:12;;;;;;;3.53;2.40;;;9.00;57.00;;;;;;5017962;28;20520;-85
2021/04/27 01:40:38;;;;;;;5.97;2.43;;;9.10;57.10;;;;;;5016570;28;20952;-86
2021/04/27 01:43:06;;;;;;;5.27;3.17;;;9.00;56.60;;;;;;5016744;28;20482;-85
2021/04/27 01:45:33;;;;;;;5.10;2.83;;;9.00;56.90;;;;;;5016896;28;20534;-85
2021/04/27 01:48:01;;;;;;;10.60;3.13;;;8.90;57.40;;;;;;5016594;28;20522;-84
2021/04/27 01:50:29;;;;;;;6.80;2.87;;;8.80;57.40;;;;;;5028843;28;20568;-86
2021/04/27 01:52:56;;;;;;;5.23;3.33;;;8.80;57.60;;;;;;5034303;28;20535;-86
2021/04/27 01:55:24;;;;;;;5.03;2.83;;;8.50;57.20;;;;;;5022427;28;20480;-86
2021/04/27 01:57:51;;;;;;;3.90;2.40;;;8.90;57.30;;;;;;5016153;28;20508;-85
2021/04/27 02:00:22;;;;;;;5.87;2.53;;;8.90;57.30;;;;;;5034528;28;20493;-86
2021/04/27 02:02:50;;;;;;;5.20;3.27;;;8.80;57.60;;;;;;5036233;28;20505;-86
2021/04/27 02:05:17;;;;;;;5.27;2.90;;;8.80;57.70;;;;;;5026985;28;20500;-85
2021/04/27 02:07:44;;;;;;;5.20;2.73;;;8.70;57.80;;;;;;5017638;28;20505;-85
2021/04/27 02:10:12;;;;;;;4.40;2.60;;;8.80;58.30;;;;;;5026828;28;20532;-85
2021/04/27 02:12:41;;;;;;;5.17;2.90;;;8.50;58.20;;;;;;5037516;28;20481;-85
2021/04/27 02:15:10;;;;;;;4.30;2.60;;;8.70;58.40;;;;;;5029654;28;20513;-85
2021/04/27 02:17:41;;;;;;;9.53;3.50;;;8.70;58.50;;;;;;5018021;28;20457;-84
2021/04/27 02:20:10;;;;;;;4.10;2.50;;;8.80;59.00;;;;;;5027990;28;20431;-85
2021/04/27 02:22:38;;;;;;;4.70;2.70;;;8.70;58.50;;;;;;5046525;28;20509;-85
2021/04/27 02:25:06;;;;;;;5.67;3.13;;;8.80;58.70;;;;;;5043187;28;20478;-84
2021/04/27 02:27:35;;;;;;;7.90;3.10;;;8.80;59.00;;;;;;5046232;28;20450;-85
2021/04/27 02:30:03;;;;;;;5.07;2.80;;;8.50;59.10;;;;;;5056082;28;20476;-86
2021/04/27 02:32:29;;;;;;;5.70;3.00;;;8.50;58.90;;;;;;5048036;28;20996;-84
2021/04/27 02:34:55;;;;;;;6.40;2.80;;;8.50;59.00;;;;;;5043133;28;20454;-85
2021/04/27 02:37:22;;;;;;;3.70;2.30;;;8.40;59.30;;;;;;5035263;28;20425;-86
2021/04/27 02:39:49;;;;;;;8.03;3.10;;;8.50;59.50;;;;;;5034380;28;20458;-85
2021/04/27 02:42:15;;;;;;;6.80;3.03;;;8.40;59.60;;;;;;5026702;28;20601;-85
2021/04/27 02:44:43;;;;;;;4.13;2.90;;;8.30;59.70;;;;;;5015773;28;21139;-86
2021/04/27 02:47:09;;;;;;;5.40;3.00;;;8.10;59.70;;;;;;5016917;28;20870;-86
2021/04/27 02:49:35;;;;;;;5.00;2.60;;;8.10;59.80;;;;;;5038061;28;20518;-86
2021/04/27 02:52:02;;;;;;;8.37;4.80;;;8.40;60.40;;;;;;5035049;28;21236;-86
2021/04/27 02:54:29;;;;;;;5.67;3.37;;;8.10;60.10;;;;;;5028726;28;20481;-86
2021/04/27 02:56:55;;;;;;;7.33;3.00;;;8.10;60.20;;;;;;5014386;28;20470;-85
2021/04/27 02:59:22;;;;;;;6.40;2.53;;;8.20;60.70;;;;;;5030142;28;20463;-86
2021/04/27 03:01:48;;;;;;;8.10;3.10;;;8.20;61.50;;;;;;5033136;28;20450;-84
2021/04/27 03:04:14;;;;;;;5.10;2.87;;;8.00;61.70;;;;;;5037983;28;20454;-85
2021/04/27 03:06:41;;;;;;;5.27;3.30;;;8.10;61.80;;;;;;5042393;28;20440;-86
2021/04/27 03:09:07;;;;;;;5.00;2.67;;;8.30;61.90;;;;;;5037213;28;20446;-85
2021/04/27 03:11:34;;;;;;;6.43;3.03;;;7.90;61.40;;;;;;5034053;28;20489;-84
2021/04/27 03:14:00;;;;;;;7.37;3.10;;;8.10;61.60;;;;;;5031325;28;21034;-85
2021/04/27 03:16:27;;;;;;;5.67;2.50;;;8.00;62.70;;;;;;5033446;28;20439;-85
2021/04/27 03:18:53;;;;;;;5.37;3.07;;;7.90;62.00;;;;;;5034451;28;20969;-85
2021/04/27 03:21:20;;;;;;;5.70;2.63;;;8.00;63.80;;;;;;5033809;28;20521;-84
2021/04/27 03:23:46;;;;;;;6.27;2.90;;;7.90;64.10;;;;;;5031932;28;20512;-85
2021/04/27 03:26:13;;;;;;;4.73;3.50;;;7.90;64.20;;;;;;5017319;28;20541;-85
2021/04/27 03:28:41;;;;;;;6.03;3.90;;;7.80;64.10;;;;;;5023693;28;20511;-85
2021/04/27 03:31:08;;;;;;;5.30;3.20;;;7.90;64.10;;;;;;5039619;28;20469;-85
2021/04/27 03:33:35;;;;;;;9.17;3.40;;;8.00;64.60;;;;;;5034006;28;20474;-85
2021/04/27 03:36:01;;;;;;;5.83;3.30;;;7.90;65.00;;;;;;5014891;28;20439;-86
2021/04/27 03:38:27;;;;;;;8.27;3.60;;;8.10;65.40;;;;;;5012043;28;20486;-85
2021/04/27 03:40:54;;;;;;;9.20;2.50;;;8.00;65.30;;;;;;5011758;28;20547;-85
2021/04/27 03:43:20;;;;;;;5.00;2.90;;;8.20;65.30;;;;;;5023138;28;20949;-85
2021/04/27 03:45:48;;;;;;;6.33;3.17;;;7.80;66.50;;;;;;5034385;28;20806;-84
2021/04/27 03:48:16;;;;;;;5.93;3.30;;;8.00;67.60;;;;;;5024410;28;20480;-83
2021/04/27 03:50:43;;;;;;;6.73;2.63;;;7.80;67.90;;;;;;5038734;28;20530;-85
2021/04/27 03:53:09;;;;;;;6.43;3.00;;;7.70;68.20;;;;;;5040291;28;20497;-84
2021/04/27 03:55:37;;;;;;;6.07;2.77;;;7.60;68.50;;;;;;5020687;28;20454;-84
2021/04/27 03:58:04;;;;;;;8.40;2.80;;;7.50;69.10;;;;;;5019912;28;20455;-85
2021/04/27 04:00:31;;;;;;;6.00;3.23;;;7.50;69.80;;;;;;5038731;28;20532;-84
2021/04/27 04:02:58;;;;;;;5.70;3.00;;;7.60;69.90;;;;;;5038968;28;20437;-84
2021/04/27 04:05:24;;;;;;;7.17;3.20;;;7.50;70.00;;;;;;5019855;28;20486;-85
2021/04/27 04:07:51;;;;;;;7.17;3.17;;;7.50;69.90;;;;;;5018295;28;20471;-87
2021/04/27 04:10:18;;;;;;;11.60;4.10;;;7.50;70.00;;;;;;5034984;28;20493;-85
2021/04/27 04:12:45;;;;;;;7.90;4.67;;;7.50;70.10;;;;;;5038433;28;20568;-86
2021/04/27 04:15:14;;;;;;;5.70;3.37;;;7.50;70.20;;;;;;5037967;28;20457;-83
2021/04/27 04:17:41;;;;;;;5.77;2.90;;;7.60;70.50;;;;;;5059015;28;20457;-85
2021/04/27 04:20:11;;;;;;;5.17;2.97;;;7.50;70.90;;;;;;5050827;28;20455;-84
2021/04/27 04:22:38;;;;;;;9.17;2.87;;;7.60;70.80;;;;;;5037993;28;20524;-84
2021/04/27 04:25:06;;;;;;;5.73;3.33;;;7.60;69.80;;;;;;5037641;28;20968;-85
2021/04/27 04:27:33;;;;;;;6.60;3.27;;;7.80;69.80;;;;;;5037634;28;20801;-85
2021/04/27 04:29:59;;;;;;;5.70;2.83;;;7.70;70.70;;;;;;5037629;28;20476;-85
2021/04/27 04:32:25;;;;;;;7.80;3.80;;;7.60;71.00;;;;;;5038017;28;20565;-85
2021/04/27 04:34:52;;;;;;;6.23;3.30;;;7.70;71.40;;;;;;5025960;28;20545;-86
2021/04/27 04:37:19;;;;;;;6.87;3.30;;;7.50;71.00;;;;;;5020036;28;20542;-85
2021/04/27 04:39:45;;;;;;;6.70;2.90;;;7.70;67.10;;;;;;5022871;28;20461;-86
2021/04/27 04:42:12;;;;;;;5.90;2.97;;;7.60;66.10;;;;;;5017838;28;20969;-86
2021/04/27 04:44:38;;;;;;;14.43;4.13;;;7.40;66.10;;;;;;5019307;28;20549;-84
2021/04/27 04:47:04;;;;;;;5.30;2.60;;;7.50;66.40;;;;;;5021800;28;20443;-87
2021/04/27 04:49:31;;;;;;;6.80;3.40;;;7.50;66.80;;;;;;5033558;28;20462;-86
2021/04/27 04:51:57;;;;;;;6.47;4.07;;;7.30;67.00;;;;;;5045558;28;20563;-87
2021/04/27 04:54:24;;;;;;;6.73;3.80;;;7.30;66.80;;;;;;5050211;28;20485;-83
2021/04/27 04:56:51;;;;;;;5.40;2.80;;;7.60;67.40;;;;;;5052533;28;20428;-82
2021/04/27 04:59:17;;;;;;;6.60;3.17;;;7.20;67.10;;;;;;5041468;28;20434;-81
2021/04/27 05:01:44;;;;;;;6.23;3.40;;;7.60;67.50;;;;;;5027327;28;20495;-82
2021/04/27 05:04:10;;;;;;;7.80;3.70;;;7.70;67.70;;;;;;5027803;28;20533;-79
2021/04/27 05:06:39;;;;;;;7.30;4.40;;;7.40;67.20;;;;;;5080304;22;20566;-84
2021/04/27 05:09:07;;;;;;;8.57;3.77;;;7.60;67.70;;;;;;5073054;28;20965;-85
2021/04/27 05:11:34;;;;;;;6.43;2.97;;;7.40;68.00;;;;;;5082297;28;20529;-85
2021/04/27 05:14:01;;;;;;;6.23;2.90;;;7.40;67.40;;;;;;5075955;28;20988;-83
2021/04/27 05:16:28;;;;;;;11.90;3.70;;;7.50;68.00;;;;;;5087485;28;20496;-85
2021/04/27 05:18:55;;;;;;;15.40;4.00;;;7.20;68.00;;;;;;5094441;28;20448;-85
2021/04/27 05:21:21;;;;;;;4.83;3.10;;;7.50;68.60;;;;;;5078170;28;20492;-82
2021/04/27 05:23:48;;;;;;;4.60;3.30;;;7.60;68.40;;;;;;5061949;28;20539;-82
2021/04/27 05:26:14;;;;;;;6.60;3.20;;;7.60;68.40;;;;;;5076774;28;20552;-83
2021/04/27 05:28:42;;;;;;;6.47;3.27;;;7.60;69.20;;;;;;5077978;28;20535;-83
2021/04/27 05:31:09;;;;;;;7.80;3.33;;;7.50;67.90;;;;;;5077186;28;20531;-83
2021/04/27 05:33:35;;;;;;;10.47;3.27;;;7.50;67.90;;;;;;5076153;28;20820;-83
2021/04/27 05:36:02;;;;;;;5.60;3.47;;;7.40;67.90;;;;;;5077780;28;20539;-83
2021/04/27 05:38:29;;;;;;;7.10;3.30;;;7.80;67.80;;;;;;5083461;28;20479;-84
2021/04/27 05:40:55;;;;;;;14.20;3.10;;;7.60;67.40;;;;;;5099349;28;20458;-84
2021/04/27 05:43:22;;;;;;;8.00;3.90;;;7.90;68.30;;;;;;5097929;28;20549;-84
2021/04/27 05:45:49;;;;;;;6.93;3.80;;;8.00;69.80;;;;;;5080375;28;20472;-84
2021/04/27 05:48:15;;;;;;;13.87;3.27;;;7.80;68.50;;;;;;5076877;28;20959;-83
2021/04/27 05:50:42;;;;;;;10.50;3.40;;;7.80;67.70;;;;;;5080342;28;20697;-83
2021/04/27 05:53:08;;;;;;;6.67;2.93;;;7.70;68.30;;;;;;5083925;28;20545;-84
2021/04/27 05:55:35;;;;;;;6.40;3.47;;;7.60;67.90;;;;;;5100233;28;20519;-83
2021/04/27 05:58:02;;;;;;;8.00;4.00;;;7.80;68.20;;;;;;5099871;28;20451;-84
2021/04/27 06:00:28;;;;;;;6.90;2.87;;;7.70;68.90;;;;;;5100861;28;20502;-84
2021/04/27 06:02:55;;;;;;;7.93;3.50;;;7.80;68.80;;;;;;5102263;28;20981;-85
2021/04/27 06:05:22;;;;;;;8.03;3.60;;;7.90;67.90;;;;;;5092031;28;20456;-86
2021/04/27 06:07:48;;;;;;;9.13;4.20;;;7.80;68.00;;;;;;5085236;28;20514;-84
2021/04/27 06:10:14;;;;;;;5.50;3.13;;;7.70;68.40;;;;;;5082523;28;20879;-84
2021/04/27 06:12:41;;;;;;;18.53;4.33;;;7.80;68.00;;;;;;5089285;28;20482;-85
2021/04/27 06:15:08;;;;;;;7.77;3.23;;;7.80;67.90;;;;;;5097774;28;20699;-84
2021/04/27 06:17:35;;;;;;;11.53;4.47;;;7.80;67.50;;;;;;5092323;28;20476;-83
2021/04/27 06:20:05;;;;;;;8.70;4.10;;;8.00;68.30;;;;;;5080294;28;20477;-83
2021/04/27 06:22:32;;;;;;;7.20;4.23;;;8.20;68.10;;;;;;5083905;28;20515;-83
2021/04/27 06:24:58;;;;;;;14.57;4.27;;;8.00;67.40;;;;;;5076945;28;20490;-86
2021/04/27 06:27:28;;;;;;;8.17;4.17;;;8.20;68.00;;;;;;5083186;28;20475;-86
2021/04/27 06:29:55;;;;;;;8.20;3.77;;;8.30;67.80;;;;;;5080010;28;20456;-81
2021/04/27 06:32:24;;;;;;;6.67;3.90;;;8.30;67.90;;;;;;5088480;28;20483;-85
2021/04/27 06:34:50;;;;;;;8.20;4.53;;;8.30;66.90;;;;;;5095499;28;20505;-84
2021/04/27 06:37:18;;;;;;;10.83;4.43;;;8.40;67.70;;;;;;5086079;28;20537;-84
2021/04/27 06:39:44;;;;;;;9.10;3.77;;;8.40;68.00;;;;;;5081488;28;20497;-86
2021/04/27 06:42:11;;;;;;;7.50;3.90;;;8.40;67.40;;;;;;5085776;28;20444;-84
2021/04/27 06:44:37;;;;;;;9.20;4.50;;;8.50;67.40;;;;;;5092311;28;20491;-83
2021/04/27 06:47:06;;;;;;;7.83;3.87;;;8.60;67.80;;;;;;5103743;28;20560;-82
2021/04/27 06:49:33;;;;;;;9.67;3.97;;;8.50;67.70;;;;;;5083070;28;20490;-84
2021/04/27 06:51:59;;;;;;;9.73;4.30;;;8.80;67.60;;;;;;5080339;28;20526;-83
2021/04/27 06:54:26;;;;;;;9.13;5.10;;;8.60;67.40;;;;;;5076127;28;20505;-83
2021/04/27 06:56:53;;;;;;;9.07;4.37;;;9.00;67.80;;;;;;5080143;28;20555;-81
2021/04/27 06:59:21;;;;;;;7.10;4.30;;;8.70;67.60;;;;;;5089303;28;20477;-82
2021/04/27 07:01:47;;;;;;;5.30;3.70;;;8.60;67.40;;;;;;5090577;28;20448;-84
2021/04/27 07:04:14;;;;;;;8.53;4.17;;;8.60;67.70;;;;;;5079872;28;20451;-83
2021/04/27 07:06:41;;;;;;;5.73;3.50;;;8.70;68.10;;;;;;5079204;28;20498;-84
2021/04/27 07:09:07;;;;;;;9.37;5.10;;;8.60;68.30;;;;;;5080713;28;20665;-83
2021/04/27 07:11:35;;;;;;;6.40;3.67;;;8.60;68.90;;;;;;5086324;28;20464;-85
2021/04/27 07:14:01;;;;;;;7.23;4.30;;;8.70;67.90;;;;;;5088751;28;20478;-81
2021/04/27 07:16:27;;;;;;;8.43;4.60;;;8.70;67.70;;;;;;5098169;28;20447;-84
2021/04/27 07:18:54;;;;;;;9.50;5.20;;;8.80;67.50;;;;;;5104911;28;20430;-82
2021/04/27 07:21:22;;;;;;;13.43;5.37;;;9.00;67.50;;;;;;5101710;28;20456;-84
2021/04/27 07:23:49;;;;;;;6.30;4.33;;;9.20;67.60;;;;;;5097056;28;20898;-82
2021/04/27 07:26:15;;;;;;;8.17;4.20;;;9.30;66.40;;;;;;5098184;28;20510;-85
2021/04/27 07:28:42;;;;;;;7.47;4.70;;;9.00;64.80;;;;;;5097355;28;20484;-83
2021/04/27 07:31:09;;;;;;;8.20;5.10;;;9.30;65.10;;;;;;5086691;28;20567;-84
2021/04/27 07:33:35;;;;;;;13.47;4.53;;;9.50;65.30;;;;;;5087228;28;20534;-83
2021/04/27 07:36:02;;;;;;;13.50;5.37;;;9.70;65.10;;;;;;5082745;28;20491;-84
2021/04/27 07:38:28;;;;;;;8.70;4.87;;;9.70;64.90;;;;;;5079191;28;20464;-85
2021/04/27 07:40:55;;;;;;;7.87;4.83;;;9.70;65.30;;;;;;5083968;28;20511;-84
2021/04/27 07:43:21;;;;;;;11.10;5.00;;;9.80;65.20;;;;;;5096190;28;20933;-83
2021/04/27 07:45:48;;;;;;;8.07;4.90;;;9.70;65.60;;;;;;5093266;28;20536;-83
2021/04/27 07:48:15;;;;;;;9.60;5.13;;;9.80;65.00;;;;;;5090059;28;20453;-83
2021/04/27 07:50:41;;;;;;;6.53;3.50;;;9.90;64.60;;;;;;5078271;28;20962;-83
2021/04/27 07:53:07;;;;;;;11.83;5.73;;;10.00;63.00;;;;;;5091179;28;20538;-82
2021/04/27 07:55:34;;;;;;;8.23;5.40;;;10.00;62.90;;;;;;5093662;28;20520;-82
2021/04/27 07:58:00;;;;;;;8.07;5.20;;;10.00;63.00;;;;;;5085444;28;20471;-83
2021/04/27 08:00:27;;;;;;;7.57;4.80;;;10.10;63.00;;;;;;5089389;28;20451;-82
2021/04/27 08:02:54;;;;;;;10.63;6.00;;;10.30;63.50;;;;;;5096701;28;20545;-81
2021/04/27 08:05:21;;;;;;;8.53;4.80;;;10.40;63.30;;;;;;5096845;28;20877;-82
2021/04/27 08:07:48;;;;;;;11.13;5.23;;;10.50;62.90;;;;;;5082967;28;20547;-84
2021/04/27 08:10:15;;;;;;;8.67;4.97;;;10.60;62.30;;;;;;5095796;28;20491;-82
2021/04/27 08:12:43;;;;;;;7.23;4.77;;;10.70;61.60;;;;;;5077018;28;20549;-82
2021/04/27 08:15:13;;;;;;;10.93;5.43;;;10.80;61.10;;;;;;5073768;28;20476;-83
2021/04/27 08:17:39;;;;;;;13.10;5.87;;;10.80;62.30;;;;;;5072823;28;20442;-82
2021/04/27 08:20:09;;;;;;;9.90;5.50;;;10.90;61.70;;;;;;5085614;28;20869;-84
2021/04/27 08:22:35;;;;;;;11.13;4.50;;;11.00;61.10;;;;;;5088879;28;20448;-83
2021/04/27 08:25:03;;;;;;;9.43;5.67;;;11.10;60.60;;;;;;5077090;28;20465;-84
2021/04/27 08:27:29;;;;;;;8.27;4.93;;;11.10;61.00;;;;;;5075831;28;20494;-83
2021/04/27 08:29:56;;;;;;;9.70;6.10;;;11.10;60.10;;;;;;5077046;28;20832;-84
2021/04/27 08:32:22;;;;;;;17.37;6.40;;;11.10;60.20;;;;;;5088543;28;20538;-83
2021/04/27 08:34:49;;;;;;;11.63;6.27;;;11.20;60.70;;;;;;5092964;28;20478;-85
2021/04/27 08:37:16;;;;;;;11.93;6.07;;;11.30;60.60;;;;;;5099686;28;20476;-84
2021/04/27 08:39:43;;;;;;;14.40;5.63;;;11.40;60.50;;;;;;5061309;28;20435;-85
2021/04/27 08:42:11;;;;;;;8.50;6.20;;;11.50;60.40;;;;;;5078263;28;20966;-87
2021/04/27 08:44:39;;;;;;;9.80;6.07;;;11.70;59.50;;;;;;5083598;28;20426;-85
2021/04/27 08:47:06;;;;;;;17.60;5.93;;;11.80;59.20;;;;;;5088623;28;20555;-86
2021/04/27 08:49:32;;;;;;;11.70;6.73;;;11.90;59.00;;;;;;5082922;28;20532;-83
2021/04/27 08:51:59;;;;;;;11.07;5.93;;;11.90;58.80;;;;;;5082794;28;20473;-85
2021/04/27 08:54:26;;;;;;;10.17;7.10;;;12.10;59.10;;;;;;5082643;28;20479;-85
2021/04/27 08:56:53;;;;;;;13.10;7.00;;;12.30;58.90;;;;;;5087721;28;20503;-87
2021/04/27 08:59:20;;;;;;;9.30;6.10;;;12.40;58.80;;;;;;5099560;28;20435;-87
2021/04/27 09:01:46;;;;;;;11.10;6.83;;;12.20;58.20;;;;;;5081076;28;20458;-85
2021/04/27 09:04:15;;;;;;;11.87;6.30;;;12.40;58.60;;;;;;5062750;28;20457;-84
2021/04/27 09:06:41;;;;;;;9.83;5.93;;;12.40;58.70;;;;;;5061377;28;20484;-85
2021/04/27 09:09:07;;;;;;;11.33;6.60;;;12.40;58.70;;;;;;5084904;28;20478;-85
2021/04/27 09:11:37;;;;;;;10.10;6.20;;;12.20;58.70;;;;;;5101197;28;20548;-85
2021/04/27 09:14:15;;;;;;;9.73;6.17;;;12.20;59.00;;;;;;5103605;28;20466;-86
2021/04/27 09:16:47;;;;;;;17.07;7.03;;;12.30;59.30;;;;;;5104518;28;20475;-84
2021/04/27 09:19:39;;;;;;;9.93;6.20;;;12.40;58.90;;;;;;5101514;28;20450;-84
2021/04/27 09:22:10;;;;;;;6.80;3.63;;;12.40;58.70;;;;;;5102579;28;20416;-84
2021/04/27 09:24:39;;;;;;;13.47;7.43;;;12.40;58.60;;;;;;5080982;28;20395;-84
2021/04/27 09:27:07;;;;;;;7.60;5.63;;;12.40;59.20;;;;;;5084671;28;20499;-86
2021/04/27 09:29:40;;;;;;;8.33;6.10;;;12.40;59.20;;;;;;5090191;28;20411;-86
2021/04/27 09:32:07;;;;;;;8.40;6.43;;;12.30;59.20;;;;;;5081243;28;20528;-85
2021/04/27 09:34:35;;;;;;;8.17;6.80;;;12.60;59.40;;;;;;5081133;28;20458;-85
2021/04/27 09:37:04;;;;;;;9.23;7.00;;;12.90;58.50;;;;;;5093184;28;20433;-84
2021/04/27 09:39:33;;;;;;;10.00;5.90;;;13.00;58.40;;;;;;5105451;28;20479;-86
2021/04/27 09:42:02;;;;;;;10.80;6.70;;;12.90;58.10;;;;;;5101239;28;20500;-85
2021/04/27 09:44:33;;;;;;;11.43;5.87;;;13.00;58.50;;;;;;5096724;28;20885;-82
2021/04/27 09:47:14;;;;;;;11.97;7.50;;;13.00;58.10;;;;;;5099199;28;20952;-82
2021/04/27 09:49:41;;;;;;;13.90;7.07;;;13.00;58.50;;;;;;5086716;28;20431;-83
2021/04/27 09:52:11;;;;;;;11.20;7.60;;;13.10;58.20;;;;;;5057949;28;20489;-83
2021/04/27 09:55:08;;;;;;;8.80;7.00;;;13.20;58.20;;;;;;5057744;28;20439;-82
2021/04/27 09:57:37;;;;;;;13.80;6.93;;;13.20;58.60;;;;;;5057975;28;20447;-83
2021/04/27 10:00:28;;;;;;;21.83;7.10;;;13.40;58.10;;;;;;5073954;28;21067;-83
2021/04/27 10:02:57;;;;;;;9.43;6.00;;;13.50;57.80;;;;;;5088360;28;20452;-84
2021/04/27 10:05:25;;;;;;;10.33;6.00;;;13.40;57.20;;;;;;5056939;28;20468;-85
2021/04/27 10:07:52;;;;;;;15.13;7.17;;;13.20;57.60;;;;;;5056359;28;20465;-85
2021/04/27 10:10:19;;;;;;;9.07;4.83;;;13.30;58.10;;;;;;5071401;28;20438;-84
2021/04/27 10:12:47;;;;;;;11.97;7.23;;;13.30;58.20;;;;;;5077453;28;20560;-84
2021/04/27 10:15:15;;;;;;;10.77;7.20;;;13.40;57.80;;;;;;5076364;28;20456;-81
2021/04/27 10:17:43;;;;;;;10.43;5.60;;;13.50;58.10;;;;;;5080040;28;20576;-84
2021/04/27 10:20:12;;;;;;;12.83;8.57;;;13.60;57.70;;;;;;5091080;28;20506;-83
2021/04/27 10:22:41;;;;;;;13.20;8.03;;;13.70;57.60;;;;;;5089055;28;20423;-83
2021/04/27 10:25:11;;;;;;;9.70;7.23;;;13.80;57.40;;;;;;5087700;28;20413;-82
2021/04/27 10:27:38;;;;;;;9.30;5.97;;;14.00;57.50;;;;;;5079611;28;20456;-82
2021/04/27 10:30:27;;;;;;;11.37;6.87;;;14.00;57.10;;;;;;5080569;28;20499;-85
2021/04/27 10:33:16;;;;;;;11.50;6.80;;;13.80;57.00;;;;;;5092728;28;20425;-82
2021/04/27 10:36:00;;;;;;;15.13;8.77;;;13.80;57.10;;;;;;5094455;28;20450;-84
2021/04/27 10:38:42;;;;;;;10.10;8.00;;;14.00;57.10;;;;;;5087918;28;20504;-84
2021/04/27 10:41:12;;;;;;;11.40;7.47;;;14.30;56.60;;;;;;5101350;28;20466;-81
2021/04/27 10:43:43;;;;;;;11.17;7.47;;;14.40;56.10;;;;;;5065760;28;20583;-85
2021/04/27 10:46:32;;;;;;;11.67;7.93;;;14.60;55.90;;;;;;5078745;28;20443;-85
2021/04/27 10:49:10;;;;;;;10.83;8.33;;;14.50;55.50;;;;;;5079920;28;20411;-83
2021/04/27 10:51:39;;;;;;;12.70;9.43;;;14.50;55.40;;;;;;5060260;28;20605;-83
2021/04/27 10:54:15;;;;;;;11.27;7.73;;;14.70;55.50;;;;;;5060559;28;20424;-84
2021/04/27 10:56:44;;;;;;;10.53;7.63;;;14.80;54.80;;;;;;5061942;28;20582;-83
2021/04/27 10:59:12;;;;;;;14.17;8.40;;;14.60;55.80;;;;;;5070085;28;20440;-85
2021/04/27 11:01:41;;;;;;;10.60;7.43;;;14.70;55.70;;;;;;5108245;28;20418;-82
2021/04/27 11:04:25;;;;;;;11.50;7.50;;;14.80;55.40;;;;;;5106406;28;20451;-81
2021/04/27 11:07:10;;;;;;;13.53;8.43;;;15.00;55.40;;;;;;5103024;28;20923;-84
2021/04/27 11:09:38;;;;;;;13.73;6.87;;;14.90;54.60;;;;;;5104404;28;20406;-83
2021/04/27 11:12:32;;;;;;;14.10;7.10;;;14.90;54.50;;;;;;5103773;28;20485;-85
2021/04/27 11:15:00;;;;;;;11.93;8.43;;;14.80;53.80;;;;;;5115176;22;20850;-83
2021/04/27 11:17:29;;;;;;;15.93;8.00;;;14.90;53.60;;;;;;5078590;28;20418;-82
2021/04/27 11:19:56;;;;;;;10.10;7.80;;;15.00;53.50;;;;;;5080498;28;20471;-84
2021/04/27 11:22:25;;;;;;;9.40;7.47;;;15.10;53.80;;;;;;5080558;28;20436;-83
2021/04/27 11:24:53;;;;;;;12.00;8.10;;;15.20;53.60;;;;;;5049826;28;21026;-77
2021/04/27 11:27:28;;;;;;;13.53;9.13;;;15.40;53.80;;;;;;5056130;28;21015;-80
2021/04/27 11:29:57;;;;;;;10.90;7.00;;;15.40;53.00;;;;;;5056860;28;20435;-79
2021/04/27 11:32:24;;;;;;;8.70;5.23;;;15.50;52.30;;;;;;5057869;28;20501;-79
2021/04/27 11:35:14;;;;;;;12.47;6.60;;;15.70;51.40;;;;;;5051325;28;20474;-86
2021/04/27 11:37:44;;;;;;;9.00;5.90;;;15.60;50.60;;;;;;5039955;28;20462;-82
2021/04/27 11:40:23;;;;;;;14.30;6.43;;;15.50;50.80;;;;;;5037018;28;20491;-79
2021/04/27 11:42:59;;;;;;;12.40;8.30;;;15.40;51.20;;;;;;5050343;28;20532;-82
2021/04/27 11:45:27;;;;;;;12.67;9.00;;;15.30;51.40;;;;;;5053646;28;20772;-82
2021/04/27 11:47:54;;;;;;;15.10;8.17;;;15.50;51.50;;;;;;5054756;28;20457;-82
2021/04/27 11:50:24;;;;;;;13.07;8.40;;;15.60;51.10;;;;;;5054250;28;20456;-84
2021/04/27 11:53:01;;;;;;;13.67;9.73;;;15.90;51.10;;;;;;5062506;28;20463;-83
2021/04/27 11:55:34;;;;;;;13.47;8.50;;;16.00;50.50;;;;;;5048297;28;20486;-81
2021/04/27 11:58:05;;;;;;;10.87;8.20;;;15.90;50.30;;;;;;5055635;28;20961;-81
2021/04/27 12:00:48;;;;;;;12.23;9.33;;;15.90;50.20;;;;;;5056067;28;20456;-82
2021/04/27 12:03:21;;;;;;;10.27;6.23;;;16.00;49.40;;;;;;5056570;28;20483;-82
2021/04/27 12:05:50;;;;;;;12.30;7.20;;;15.90;49.40;;;;;;5056663;28;20435;-80
2021/04/27 12:08:18;;;;;;;14.33;9.30;;;15.90;49.20;;;;;;5055858;28;20427;-84
2021/04/27 12:10:45;;;;;;;9.60;6.90;;;15.90;49.70;;;;;;5062650;28;20480;-82
2021/04/27 12:13:23;;;;;;;10.50;8.00;;;16.00;48.90;;;;;;5068624;28;20614;-82
2021/04/27 12:16:10;;;;;;;13.50;8.60;;;16.10;48.70;;;;;;5061168;28;20459;-81
2021/04/27 12:18:51;;;;;;;11.27;8.13;;;16.30;49.00;;;;;;5059017;28;20528;-80
2021/04/27 12:21:37;;;;;;;15.43;8.20;;;16.60;48.20;;;;;;5057949;28;20452;-83
2021/04/27 12:24:15;;;;;;;11.77;7.90;;;16.70;47.30;;;;;;5047226;28;20502;-83
2021/04/27 12:26:46;;;;;;;12.20;8.03;;;16.60;46.90;;;;;;5042797;28;20461;-81
2021/04/27 12:29:13;;;;;;;15.90;9.40;;;16.60;46.80;;;;;;5046073;28;20427;-82
2021/04/27 12:31:40;;;;;;;16.30;8.77;;;16.60;47.70;;;;;;5046395;28;20505;-80
2021/04/27 12:34:08;;;;;;;10.87;6.73;;;16.70;47.50;;;;;;5046994;28;20452;-83
2021/04/27 12:36:41;;;;;;;11.27;8.73;;;16.80;47.30;;;;;;5046565;28;20490;-83
2021/04/27 12:39:24;;;;;;;13.53;8.77;;;16.70;47.30;;;;;;5064933;28;20484;-82
2021/04/27 12:41:52;;;;;;;12.27;8.00;;;16.60;47.70;;;;;;5065874;28;20832;-82
2021/04/27 12:44:33;;;;;;;12.80;8.40;;;16.50;47.70;;;;;;5067985;28;20967;-82
2021/04/27 12:47:02;;;;;;;10.67;7.33;;;16.50;47.50;;;;;;5064188;28;20838;-81
2021/04/27 12:49:30;;;;;;;10.60;8.37;;;16.70;47.20;;;;;;5065267;28;20452;-83
2021/04/27 12:52:00;;;;;;;11.63;7.30;;;16.70;46.80;;;;;;5055930;28;20528;-79
2021/04/27 12:54:29;;;;;;;10.37;6.87;;;16.80;46.00;;;;;;5060003;28;20448;-84
2021/04/27 12:57:08;;;;;;;14.43;7.10;;;16.70;46.10;;;;;;5044819;28;20429;-82
2021/04/27 12:59:35;;;;;;;13.60;7.80;;;16.70;46.40;;;;;;5060998;28;20446;-81